createdAt,value
2023-02-22T00:00:44.861Z,24.00
2023-02-22T00:05:48.314Z,23.90
2023-02-22T00:10:51.496Z,23.80
2023-02-22T00:15:55.808Z,23.80
2023-02-22T00:21:00.258Z,23.70
2023-02-22T00:26:03.133Z,23.70
2023-02-22T00:31:07.587Z,23.60
2023-02-22T00:36:12.832Z,23.60
2023-02-22T00:41:16.142Z,23.50
2023-02-22T00:46:20.551Z,23.40
2023-02-22T00:51:26.508Z,23.40
2023-02-22T00:56:29.412Z,23.30
2023-02-22T01:01:33.700Z,23.30
2023-02-22T01:06:37.130Z,23.20
2023-02-22T01:11:41.350Z,23.10
2023-02-22T01:16:45.570Z,23.10
2023-02-22T01:21:48.922Z,23.10
2023-02-22T01:26:53.316Z,23.00
2023-02-22T01:31:57.919Z,22.90
2023-02-22T01:37:01.460Z,22.90
2023-02-22T01:42:04.401Z,22.80
2023-02-22T01:47:09.784Z,22.70
2023-02-22T01:52:19.352Z,22.70
2023-02-22T01:57:26.410Z,22.70
2023-02-22T02:02:30.676Z,22.60
2023-02-22T02:07:33.499Z,22.70
2023-02-22T02:12:37.455Z,22.70
2023-02-22T02:17:41.698Z,22.70
2023-02-22T02:22:52.645Z,22.70
2023-02-22T02:28:23.966Z,22.70
2023-02-22T02:33:32.649Z,22.60
2023-02-22T02:38:42.666Z,22.60
2023-02-22T02:43:54.483Z,22.60
2023-02-22T02:49:01.450Z,22.50
2023-02-22T02:54:05.228Z,22.50
2023-02-22T02:59:26.225Z,22.40
2023-02-22T03:04:43.449Z,22.40
2023-02-22T03:10:00.786Z,22.30
2023-02-22T03:15:14.326Z,22.30
2023-02-22T03:20:31.501Z,22.20
2023-02-22T03:25:38.567Z,22.20
2023-02-22T03:30:46.510Z,22.20
2023-02-22T03:35:56.937Z,22.20
2023-02-22T03:41:02.908Z,22.20
2023-02-22T03:46:07.356Z,22.20
2023-02-22T03:51:16.695Z,22.20
2023-02-22T03:56:24.435Z,22.20
2023-02-22T04:01:27.404Z,22.20
2023-02-22T04:06:31.946Z,22.20
2023-02-22T04:11:34.851Z,22.10
2023-02-22T04:16:37.720Z,22.10
2023-02-22T04:21:41.912Z,22.10
2023-02-22T04:26:44.930Z,22.00
2023-02-22T04:31:48.012Z,22.00
2023-02-22T04:36:52.423Z,21.90
2023-02-22T04:41:56.033Z,21.90
2023-02-22T04:46:58.898Z,21.80
2023-02-22T04:52:03.089Z,21.80
2023-02-22T04:57:05.918Z,21.70
2023-02-22T05:02:08.820Z,21.70
2023-02-22T05:07:13.064Z,21.60
2023-02-22T05:12:16.257Z,21.50
2023-02-22T05:17:19.081Z,21.50
2023-02-22T05:22:24.169Z,21.50
2023-02-22T05:27:27.018Z,21.50
2023-02-22T05:32:29.835Z,21.70
2023-02-22T05:37:34.026Z,21.80
2023-02-22T05:42:36.855Z,21.80
2023-02-22T05:47:39.692Z,21.90
2023-02-22T05:52:44.013Z,21.80
2023-02-22T05:57:47.074Z,21.80
2023-02-22T06:02:55.170Z,21.90
2023-02-22T06:07:59.976Z,21.80
2023-02-22T06:13:03.368Z,21.80
2023-02-22T06:18:06.301Z,21.80
2023-02-22T06:23:11.121Z,21.80
2023-02-22T06:28:14.317Z,21.70
2023-02-22T06:33:17.153Z,21.70
2023-02-22T06:38:25.844Z,21.70
2023-02-22T06:43:28.673Z,21.70
2023-02-22T06:48:31.563Z,21.80
2023-02-22T06:53:36.043Z,21.90
2023-02-22T06:58:38.913Z,21.80
2023-02-22T07:03:42.347Z,21.70
2023-02-22T07:08:47.635Z,21.70
2023-02-22T07:13:50.615Z,21.80
2023-02-22T07:18:53.435Z,22.00
2023-02-22T07:23:59.915Z,22.10
2023-02-22T07:29:02.749Z,22.10
2023-02-22T07:34:05.605Z,22.20
2023-02-22T07:39:10.342Z,22.20
2023-02-22T07:44:13.260Z,21.90
2023-02-22T07:49:16.358Z,21.80
2023-02-22T07:54:20.733Z,21.80
2023-02-22T07:59:23.563Z,21.90
2023-02-22T08:04:26.669Z,22.10
2023-02-22T08:09:30.814Z,22.20
2023-02-22T08:14:33.703Z,22.30
2023-02-22T08:19:36.614Z,22.30
2023-02-22T08:24:41.085Z,22.40
2023-02-22T08:29:43.876Z,22.30
2023-02-22T08:34:46.796Z,22.30
2023-02-22T08:39:51.033Z,22.40
2023-02-22T08:44:53.854Z,22.40
2023-02-22T08:49:57.051Z,22.60
2023-02-22T08:55:01.200Z,22.70
2023-02-22T09:00:05.552Z,22.80
2023-02-22T09:05:09.356Z,22.90
2023-02-22T09:10:16.449Z,23.00
2023-02-22T09:15:20.108Z,23.00
2023-02-22T09:20:24.591Z,23.10
2023-02-22T09:25:28.923Z,23.10
2023-02-22T09:30:34.284Z,23.20
2023-02-22T09:35:37.223Z,23.10
2023-02-22T09:40:45.059Z,23.10
2023-02-22T09:45:58.942Z,23.10
2023-02-22T09:51:04.891Z,23.10
2023-02-22T09:56:11.973Z,23.00
2023-02-22T10:01:24.467Z,23.00
2023-02-22T10:06:27.928Z,23.00
2023-02-22T10:11:45.108Z,22.90
2023-02-22T10:16:56.587Z,23.00
2023-02-22T10:22:29.556Z,23.00
2023-02-22T10:27:40.444Z,23.00
2023-02-22T10:32:45.577Z,23.10
2023-02-22T10:37:49.706Z,23.00
2023-02-22T10:42:54.030Z,23.00
2023-02-22T10:47:59.286Z,23.00
2023-02-22T10:53:02.362Z,23.00
2023-02-22T10:58:09.047Z,23.00
2023-02-22T11:03:19.755Z,23.00
2023-02-22T11:08:29.112Z,22.90
2023-02-22T11:13:38.386Z,22.90
2023-02-22T11:18:41.311Z,22.90
2023-02-22T11:23:45.099Z,22.90
2023-02-22T11:28:56.012Z,22.90
2023-02-22T11:34:01.067Z,22.90
2023-02-22T11:39:05.749Z,22.90
2023-02-22T11:44:25.168Z,22.90
2023-02-22T11:49:35.221Z,22.90
2023-02-22T11:55:02.025Z,23.00
2023-02-22T12:00:24.579Z,23.00
2023-02-22T12:05:44.140Z,22.90
2023-02-22T12:10:58.643Z,22.80
2023-02-22T12:16:13.035Z,22.80
2023-02-22T12:21:20.534Z,22.80
2023-02-22T12:26:30.465Z,22.80
2023-02-22T12:31:40.383Z,22.70
2023-02-22T12:36:48.262Z,22.80
2023-02-22T12:41:55.525Z,22.80
2023-02-22T12:47:02.365Z,22.80
2023-02-22T12:52:21.191Z,22.80
2023-02-22T12:57:35.816Z,22.80
2023-02-22T13:02:44.422Z,22.80
2023-02-22T13:07:56.736Z,22.70
2023-02-22T13:13:08.999Z,22.70
2023-02-22T13:18:20.014Z,22.70
2023-02-22T13:23:35.259Z,22.70
2023-02-22T13:28:44.826Z,22.60
2023-02-22T13:34:07.285Z,22.60
2023-02-22T13:39:55.476Z,22.60
2023-02-22T13:45:36.001Z,22.50
2023-02-22T13:51:03.670Z,22.50
2023-02-22T13:56:07.088Z,22.50
2023-02-22T14:01:41.755Z,22.50
2023-02-22T14:06:45.758Z,22.50
2023-02-22T14:11:54.088Z,22.60
2023-02-22T14:17:24.906Z,22.70
2023-02-22T14:22:29.977Z,22.80
2023-02-22T14:27:42.349Z,22.90
2023-02-22T14:32:48.897Z,23.00
2023-02-22T14:37:57.046Z,23.00
2023-02-22T14:43:04.214Z,23.10
2023-02-22T14:48:20.314Z,23.00
2023-02-22T14:53:32.396Z,23.00
2023-02-22T14:58:41.541Z,23.00
2023-02-22T15:03:46.295Z,23.00
2023-02-22T15:09:07.938Z,23.00
2023-02-22T15:14:25.813Z,23.00
2023-02-22T15:19:34.565Z,23.00
2023-02-22T15:24:38.740Z,23.00
2023-02-22T15:29:44.459Z,23.00
2023-02-22T15:34:48.622Z,23.00
2023-02-22T15:39:59.220Z,22.90
2023-02-22T15:45:02.251Z,22.90
2023-02-22T15:50:23.799Z,23.00
2023-02-22T15:55:30.063Z,23.10
2023-02-22T16:00:36.941Z,23.10
2023-02-22T16:05:45.426Z,23.10
2023-02-22T16:10:54.447Z,23.10
2023-02-22T16:16:02.738Z,23.10
2023-02-22T16:21:11.741Z,23.10
2023-02-22T16:26:27.807Z,23.00
2023-02-22T16:31:33.790Z,23.00
2023-02-22T16:36:43.322Z,22.90
2023-02-22T16:41:46.229Z,22.90
2023-02-22T16:46:49.040Z,22.90
2023-02-22T16:51:55.862Z,22.90
2023-02-22T16:57:01.991Z,22.80
2023-02-22T17:02:07.568Z,22.80
2023-02-22T17:07:11.770Z,22.70
2023-02-22T17:12:14.962Z,22.60
2023-02-22T17:17:18.183Z,22.70
2023-02-22T17:22:23.687Z,22.70
2023-02-22T17:27:26.560Z,22.80
2023-02-22T17:32:29.457Z,22.60
2023-02-22T17:37:33.657Z,22.70
2023-02-22T17:42:36.484Z,22.90
2023-02-22T17:47:39.312Z,23.10
2023-02-22T17:52:43.784Z,23.40
2023-02-22T17:57:46.822Z,23.70
2023-02-22T18:02:50.099Z,24.10
2023-02-22T18:07:54.339Z,24.50
2023-02-22T18:13:01.889Z,24.80
2023-02-22T18:18:06.007Z,25.10
2023-02-22T18:23:13.479Z,25.40
2023-02-22T18:28:17.803Z,25.60
2023-02-22T18:33:21.337Z,25.70
2023-02-22T18:38:25.697Z,25.80
2023-02-22T18:43:29.431Z,25.80
2023-02-22T18:48:32.771Z,25.80
2023-02-22T18:53:37.693Z,25.80
2023-02-22T18:58:43.158Z,25.80
2023-02-22T19:03:47.364Z,25.70
2023-02-22T19:08:52.289Z,25.70
2023-02-22T19:13:57.798Z,25.80
2023-02-22T19:19:00.822Z,25.80
2023-02-22T19:24:06.060Z,25.80
2023-02-22T19:29:08.996Z,25.90
2023-02-22T19:34:14.525Z,25.90
2023-02-22T19:39:20.243Z,25.90
2023-02-22T19:44:23.214Z,25.90
2023-02-22T19:49:27.808Z,25.90
2023-02-22T19:54:32.016Z,25.80
2023-02-22T19:59:34.837Z,25.80
2023-02-22T20:04:37.715Z,25.80
2023-02-22T20:09:43.217Z,25.70
2023-02-22T20:14:47.097Z,25.70
2023-02-22T20:19:50.398Z,25.80
2023-02-22T20:24:54.688Z,25.80
2023-02-22T20:29:57.489Z,25.80
2023-02-22T20:35:00.435Z,25.80
2023-02-22T20:40:05.326Z,25.80
2023-02-22T20:45:11.028Z,25.80
2023-02-22T20:50:15.194Z,25.80
2023-02-22T20:55:19.550Z,25.70
2023-02-22T21:00:22.672Z,25.70
2023-02-22T21:05:25.512Z,25.70
2023-02-22T21:10:29.653Z,25.60
2023-02-22T21:15:34.998Z,25.60
2023-02-22T21:20:40.795Z,25.60
2023-02-22T21:25:52.994Z,25.60
2023-02-22T21:30:56.067Z,25.50
2023-02-22T21:42:22.816Z,25.40
2023-02-22T21:47:25.703Z,25.40
2023-02-22T21:52:28.502Z,25.40
2023-02-22T21:57:32.731Z,25.30
2023-02-22T22:02:38.265Z,25.30
2023-02-22T22:07:44.600Z,25.20
2023-02-22T22:12:50.416Z,25.10
2023-02-22T22:17:53.283Z,25.10
2023-02-22T22:22:56.096Z,25.00
2023-02-22T22:28:00.264Z,24.90
2023-02-22T22:33:03.094Z,24.80
2023-02-22T22:38:06.656Z,24.80
2023-02-22T22:43:10.784Z,24.70
2023-02-22T22:48:15.010Z,24.70
2023-02-22T22:53:18.699Z,24.60
2023-02-22T22:58:22.864Z,24.50
2023-02-22T23:03:26.260Z,24.50
2023-02-22T23:08:29.362Z,24.40
2023-02-22T23:13:33.810Z,24.40
2023-02-22T23:18:36.617Z,24.30
2023-02-22T23:23:51.534Z,24.20
2023-02-22T23:28:56.003Z,24.20
2023-02-22T23:33:59.946Z,24.10
2023-02-22T23:39:04.282Z,24.00
2023-02-22T23:44:08.545Z,24.00
2023-02-22T23:49:11.869Z,23.90
2023-02-22T23:54:19.235Z,23.90
2023-02-22T23:59:22.055Z,23.80
